tititudorancea.com
Station Historical Data
Daily Summary for Nil La, TWC- Units:  Both    English   Metric
« Previous Day
Next Day »
Daily Weekly Monthly Yearly Custom
  High: Low: Average:
Temperature: TemperatureF °F /  -17.8 °C 54.9 °F /  12.7 °C 58.4 °F /  14.7 °C
Dew Point: DewpointF °F /  -17.8 °C 52.9 °F /  11.6 °C 55.3 °F /  12.9 °C
Humidity: Humidity % 62 % 89 %
Wind Speed: WindSpeedMPH mph /  0 km/h - 6.8 mph /  10.9 km/h
Wind Gust: WindSpeedGustMPH mph /  0 km/h - -
Wind:- - SE
Pressure: PressureIn in /  0 hPa 29.41 in /  995.8 hPa -
Precipitation: 0.181 in /  4.6 mm    
Historical Graphs
 
 
Ararat weather Find more about Weather in Ararat, AU


 



 


Tabular Data for Nil La, TWC-
Time Temperature Dew Point Pressure Wind Wind Speed Wind Gust Humidity Rainfall Rate (Hourly)
TemperatureF °F /  -17.8 °C DewpointF °F /  -17.8 °C PressureIn in /  0 hPa Calm     Humidity % HourlyPrecipIn in /  0 mm
00:04 57.4 °F /  14.1 °C 56 °F /  13.3 °C 29.42 in /  996.2 hPa North 15 mph /  24.1 km/h 8 mph /  12.9 km/h 95 % 0 in /  0 mm
00:09 57.5 °F /  14.2 °C 56.1 °F /  13.4 °C 29.41 in /  995.8 hPa North 12.7 mph /  20.4 km/h 8.6 mph /  13.8 km/h 95 % 0 in /  0 mm
00:14 57.5 °F /  14.2 °C 56.1 °F /  13.4 °C 29.41 in /  995.8 hPa South 11.5 mph /  18.5 km/h 5.9 mph /  9.5 km/h 95 % 0 in /  0 mm
00:19 57.5 °F /  14.2 °C 56.1 °F /  13.4 °C 29.41 in /  995.8 hPa SSW 17.3 mph /  27.8 km/h 9.4 mph /  15.1 km/h 95 % 0 in /  0 mm
00:24 57.6 °F /  14.2 °C 56.2 °F /  13.4 °C 29.41 in /  995.8 hPa SSW 13 mph /  20.9 km/h 10.2 mph /  16.4 km/h 95 % 0 in /  0 mm
00:29 57.6 °F /  14.2 °C 56.5 °F /  13.6 °C 29.41 in /  995.8 hPa South 10.4 mph /  16.7 km/h 7.3 mph /  11.7 km/h 96 % 0 in /  0 mm
00:34 57.6 °F /  14.2 °C 56.5 °F /  13.6 °C 29.41 in /  995.8 hPa South 6.9 mph /  11.1 km/h 6.9 mph /  11.1 km/h 96 % 0 in /  0 mm
00:39 57.7 °F /  14.3 °C 56.6 °F /  13.7 °C 29.42 in /  996.2 hPa North 11.5 mph /  18.5 km/h 7.7 mph /  12.4 km/h 96 % 0 in /  0 mm
00:44 57.8 °F /  14.3 °C 56.7 °F /  13.7 °C 29.42 in /  996.2 hPa South 13.8 mph /  22.2 km/h 9.4 mph /  15.1 km/h 96 % 0 in /  0 mm
00:49 57.9 °F /  14.4 °C 56.8 °F /  13.8 °C 29.42 in /  996.2 hPa SSE 11.5 mph /  18.5 km/h 8 mph /  12.9 km/h 96 % 0 in /  0 mm
00:54 57.9 °F /  14.4 °C 56.8 °F /  13.8 °C 29.42 in /  996.2 hPa SSE 11.5 mph /  18.5 km/h 5.3 mph /  8.5 km/h 96 % 0 in /  0 mm
00:59 58 °F /  14.4 °C 56.9 °F /  13.8 °C 29.42 in /  996.2 hPa South 9.2 mph /  14.8 km/h 5.6 mph /  9 km/h 96 % 0 in /  0 mm
01:04 58.1 °F /  14.5 °C 57 °F /  13.9 °C 29.42 in /  996.2 hPa South 6.9 mph /  11.1 km/h 2.7 mph /  4.3 km/h 96 % 0 in /  0 mm
01:09 58.1 °F /  14.5 °C 57 °F /  13.9 °C 29.43 in /  996.5 hPa SE 6 mph /  9.7 km/h 6.3 mph /  10.1 km/h 96 % 0 in /  0 mm
01:14 58.1 °F /  14.5 °C 57 °F /  13.9 °C 29.43 in /  996.5 hPa SE 12.7 mph /  20.4 km/h 8.6 mph /  13.8 km/h 96 % 0.008 in /  0.2 mm
01:19 58.1 °F /  14.5 °C 57 °F /  13.9 °C 29.42 in /  996.2 hPa SSE 11.5 mph /  18.5 km/h 6 mph /  9.7 km/h 96 % 0.016 in /  0.41 mm
01:24 58.1 °F /  14.5 °C 57 °F /  13.9 °C 29.43 in /  996.5 hPa SSE 7 mph /  11.3 km/h 4.8 mph /  7.7 km/h 96 % 0.016 in /  0.41 mm
01:29 58.1 °F /  14.5 °C 57 °F /  13.9 °C 29.43 in /  996.5 hPa North 6.9 mph /  11.1 km/h 3.4 mph /  5.5 km/h 96 % 0.016 in /  0.41 mm
01:34 58.3 °F /  14.6 °C 57.2 °F /  14 °C 29.43 in /  996.5 hPa SSE 9.2 mph /  14.8 km/h 4.9 mph /  7.9 km/h 96 % 0.016 in /  0.41 mm
01:39 58.3 °F /  14.6 °C 57.2 °F /  14 °C 29.44 in /  996.8 hPa SSE 7 mph /  11.3 km/h 5.4 mph /  8.7 km/h 96 % 0.016 in /  0.41 mm
01:44 58.3 °F /  14.6 °C 57.2 °F /  14 °C 29.44 in /  996.8 hPa North 5.8 mph /  9.3 km/h 4.3 mph /  6.9 km/h 96 % 0.016 in /  0.41 mm
01:49 58.3 °F /  14.6 °C 57.2 °F /  14 °C 29.44 in /  996.8 hPa North 6.9 mph /  11.1 km/h 5.8 mph /  9.3 km/h 96 % 0.024 in /  0.61 mm
01:54 57.7 °F /  14.3 °C 56.3 °F /  13.5 °C 29.44 in /  996.8 hPa ESE 8.1 mph /  13 km/h 4.2 mph /  6.8 km/h 95 % 0.047 in /  1.19 mm
01:59 57.1 °F /  13.9 °C 55.7 °F /  13.2 °C 29.45 in /  997.2 hPa North 8.1 mph /  13 km/h 2.2 mph /  3.5 km/h 95 % 0.063 in /  1.6 mm
02:04 56.8 °F /  13.8 °C 55.4 °F /  13 °C 29.45 in /  997.2 hPa ESE 6 mph /  9.7 km/h 3.2 mph /  5.1 km/h 95 % 0.071 in /  1.8 mm
02:09 56.6 °F /  13.7 °C 55.5 °F /  13.1 °C 29.44 in /  996.8 hPa ESE 3.5 mph /  5.6 km/h 0.1 mph /  0.2 km/h 96 % 0.079 in /  2.01 mm
02:14 56.5 °F /  13.6 °C 55.4 °F /  13 °C 29.44 in /  996.8 hPa Calm     96 % 0.079 in /  2.01 mm
02:19 56.4 °F /  13.6 °C 55.3 °F /  12.9 °C 29.44 in /  996.8 hPa ESE 4 mph /  6.4 km/h 0.3 mph /  0.5 km/h 96 % 0.071 in /  1.8 mm
02:24 56.4 °F /  13.6 °C 55.3 °F /  12.9 °C 29.44 in /  996.8 hPa ESE 1.2 mph /  1.9 km/h   96 % 0.071 in /  1.8 mm
02:29 56.3 °F /  13.5 °C 55.2 °F /  12.9 °C 29.44 in /  996.8 hPa Calm     96 % 0.071 in /  1.8 mm
02:34 56.3 °F /  13.5 °C 55.2 °F /  12.9 °C 29.44 in /  996.8 hPa Calm     96 % 0.071 in /  1.8 mm
02:39 56.3 °F /  13.5 °C 55.2 °F /  12.9 °C 29.44 in /  996.8 hPa Calm     96 % 0.071 in /  1.8 mm
02:44 56.3 °F /  13.5 °C 55.2 °F /  12.9 °C 29.44 in /  996.8 hPa Calm     96 % 0.071 in /  1.8 mm
02:49 56.3 °F /  13.5 °C 55.2 °F /  12.9 °C 29.44 in /  996.8 hPa Calm     96 % 0.071 in /  1.8 mm
02:54 56.4 °F /  13.6 °C 55.3 °F /  12.9 °C 29.44 in /  996.8 hPa Calm     96 % 0.047 in /  1.19 mm
02:59 56.4 °F /  13.6 °C 55.3 °F /  12.9 °C 29.44 in /  996.8 hPa Calm     96 % 0.031 in /  0.79 mm
03:04 56.5 °F /  13.6 °C 55.4 °F /  13 °C 29.45 in /  997.2 hPa Calm     96 % 0.024 in /  0.61 mm
03:09 56.5 °F /  13.6 °C 55.4 °F /  13 °C 29.45 in /  997.2 hPa ESE 1 mph /  1.6 km/h   96 % 0.016 in /  0.41 mm
03:14 56.6 °F /  13.7 °C 55.5 °F /  13.1 °C 29.45 in /  997.2 hPa Calm     96 % 0.016 in /  0.41 mm
03:19 56.7 °F /  13.7 °C 55.6 °F /  13.1 °C 29.45 in /  997.2 hPa North 2.3 mph /  3.7 km/h 0.8 mph /  1.3 km/h 96 % 0.016 in /  0.41 mm
03:24 56.7 °F /  13.7 °C 55.6 °F /  13.1 °C 29.45 in /  997.2 hPa ESE 4 mph /  6.4 km/h 2.4 mph /  3.9 km/h 96 % 0.016 in /  0.41 mm
03:29 56.8 °F /  13.8 °C 55.7 °F /  13.2 °C 29.44 in /  996.8 hPa ESE 6.9 mph /  11.1 km/h 5.9 mph /  9.5 km/h 96 % 0.016 in /  0.41 mm
03:34 56.8 °F /  13.8 °C 55.7 °F /  13.2 °C 29.44 in /  996.8 hPa North 4.6 mph /  7.4 km/h 3.5 mph /  5.6 km/h 96 % 0.031 in /  0.79 mm
03:39 56.9 °F /  13.8 °C 55.8 °F /  13.2 °C 29.45 in /  997.2 hPa ESE 6 mph /  9.7 km/h 3.2 mph /  5.1 km/h 96 % 0.031 in /  0.79 mm
03:44 57 °F /  13.9 °C 55.9 °F /  13.3 °C 29.45 in /  997.2 hPa ESE 6.9 mph /  11.1 km/h 3 mph /  4.8 km/h 96 % 0.031 in /  0.79 mm
03:49 57.2 °F /  14 °C 56.1 °F /  13.4 °C 29.45 in /  997.2 hPa ESE 5.8 mph /  9.3 km/h 3.4 mph /  5.5 km/h 96 % 0.024 in /  0.61 mm
03:54 57.2 °F /  14 °C 56.1 °F /  13.4 °C 29.45 in /  997.2 hPa ESE 6.9 mph /  11.1 km/h 5.7 mph /  9.2 km/h 96 % 0.024 in /  0.61 mm
03:59 57.1 °F /  13.9 °C 56 °F /  13.3 °C 29.46 in /  997.5 hPa ESE 5.8 mph /  9.3 km/h 4.7 mph /  7.6 km/h 96 % 0.024 in /  0.61 mm
04:04 57 °F /  13.9 °C 55.9 °F /  13.3 °C 29.46 in /  997.5 hPa North 8.1 mph /  13 km/h 3.9 mph /  6.3 km/h 96 % 0.024 in /  0.61 mm
04:09 56.8 °F /  13.8 °C 55.7 °F /  13.2 °C 29.46 in /  997.5 hPa ESE 5.8 mph /  9.3 km/h 4.8 mph /  7.7 km/h 96 % 0.024 in /  0.61 mm
04:14 56.8 °F /  13.8 °C 55.7 °F /  13.2 °C 29.47 in /  997.9 hPa ESE 6 mph /  9.7 km/h 5 mph /  8 km/h 96 % 0.016 in /  0.41 mm
04:19 56.7 °F /  13.7 °C 55.6 °F /  13.1 °C 29.47 in /  997.9 hPa North 6.9 mph /  11.1 km/h 4.3 mph /  6.9 km/h 96 % 0.016 in /  0.41 mm
04:24 56.5 °F /  13.6 °C 55.4 °F /  13 °C 29.48 in /  998.2 hPa ESE 3.5 mph /  5.6 km/h 2.8 mph /  4.5 km/h 96 % 0.016 in /  0.41 mm
04:29 56.5 °F /  13.6 °C 55.4 °F /  13 °C 29.48 in /  998.2 hPa ESE 5.8 mph /  9.3 km/h 5.2 mph /  8.4 km/h 96 % 0.016 in /  0.41 mm
04:34 56.4 °F /  13.6 °C 55.3 °F /  12.9 °C 29.48 in /  998.2 hPa ESE 5 mph /  8 km/h 4.8 mph /  7.7 km/h 96 % 0 in /  0 mm
04:39 56.3 °F /  13.5 °C 55.2 °F /  12.9 °C 29.48 in /  998.2 hPa ESE 4.6 mph /  7.4 km/h 2.9 mph /  4.7 km/h 96 % 0 in /  0 mm
04:44 56.2 °F /  13.4 °C 55.1 °F /  12.8 °C 29.48 in /  998.2 hPa ESE 5.8 mph /  9.3 km/h 4.9 mph /  7.9 km/h 96 % 0 in /  0 mm
04:49 56.1 °F /  13.4 °C 55 °F /  12.8 °C 29.48 in /  998.2 hPa ESE 3.5 mph /  5.6 km/h 0.3 mph /  0.5 km/h 96 % 0 in /  0 mm
04:54 55.9 °F /  13.3 °C 54.8 °F /  12.7 °C 29.48 in /  998.2 hPa ESE 4 mph /  6.4 km/h 1.8 mph /  2.9 km/h 96 % 0 in /  0 mm
04:59 55.8 °F /  13.2 °C 54.7 °F /  12.6 °C 29.49 in /  998.5 hPa ESE 5 mph /  8 km/h 3.9 mph /  6.3 km/h 96 % 0 in /  0 mm
05:04 55.6 °F /  13.1 °C 54.5 °F /  12.5 °C 29.49 in /  998.5 hPa ESE 3.5 mph /  5.6 km/h 1.7 mph /  2.7 km/h 96 % 0 in /  0 mm
05:09 55.6 °F /  13.1 °C 54.5 °F /  12.5 °C 29.49 in /  998.5 hPa ESE 8.1 mph /  13 km/h 2.4 mph /  3.9 km/h 96 % 0 in /  0 mm
05:14 55.5 °F /  13.1 °C 54.4 °F /  12.4 °C 29.50 in /  998.9 hPa East 9.2 mph /  14.8 km/h 7 mph /  11.3 km/h 96 % 0 in /  0 mm
05:19 55.5 °F /  13.1 °C 54.4 °F /  12.4 °C 29.50 in /  998.9 hPa ENE 12.7 mph /  20.4 km/h 7.6 mph /  12.2 km/h 96 % 0 in /  0 mm
05:24 55.6 °F /  13.1 °C 54.5 °F /  12.5 °C 29.50 in /  998.9 hPa East 12.7 mph /  20.4 km/h 7.2 mph /  11.6 km/h 96 % 0 in /  0 mm
05:29 55.5 °F /  13.1 °C 54.1 °F /  12.3 °C 29.50 in /  998.9 hPa East 11.5 mph /  18.5 km/h 6.3 mph /  10.1 km/h 95 % 0 in /  0 mm
05:34 55.6 °F /  13.1 °C 54.2 °F /  12.3 °C 29.50 in /  998.9 hPa ENE 10.4 mph /  16.7 km/h 4.7 mph /  7.6 km/h 95 % 0 in /  0 mm
05:39 55.6 °F /  13.1 °C 54.2 °F /  12.3 °C 29.50 in /  998.9 hPa East 11.5 mph /  18.5 km/h 5.4 mph /  8.7 km/h 95 % 0 in /  0 mm
05:44 55.8 °F /  13.2 °C 54.4 °F /  12.4 °C 29.50 in /  998.9 hPa East 7 mph /  11.3 km/h 6.1 mph /  9.8 km/h 95 % 0 in /  0 mm
05:49 55.9 °F /  13.3 °C 54.2 °F /  12.3 °C 29.51 in /  999.2 hPa East 8.1 mph /  13 km/h 5.1 mph /  8.2 km/h 94 % 0 in /  0 mm
05:54 55.8 °F /  13.2 °C 54.1 °F /  12.3 °C 29.50 in /  998.9 hPa East 9.2 mph /  14.8 km/h 3.1 mph /  5 km/h 94 % 0 in /  0 mm
05:59 55.8 °F /  13.2 °C 53.8 °F /  12.1 °C 29.51 in /  999.2 hPa East 6.9 mph /  11.1 km/h 3.8 mph /  6.1 km/h 93 % 0 in /  0 mm
06:04 55.7 °F /  13.2 °C 53.7 °F /  12.1 °C 29.52 in /  999.5 hPa East 6.9 mph /  11.1 km/h 4.2 mph /  6.8 km/h 93 % 0 in /  0 mm
06:09 55.7 °F /  13.2 °C 53.7 °F /  12.1 °C 29.53 in /  999.9 hPa East 5.8 mph /  9.3 km/h 4 mph /  6.4 km/h 93 % 0 in /  0 mm
06:14 55.6 °F /  13.1 °C 53.6 °F /  12 °C 29.53 in /  999.9 hPa Calm     93 % 0 in /  0 mm
06:19 55.5 °F /  13.1 °C 53.5 °F /  11.9 °C 29.54 in /  1000.2 hPa East 2.3 mph /  3.7 km/h 0.3 mph /  0.5 km/h 93 % 0 in /  0 mm
06:24 55.4 °F /  13 °C 53.1 °F /  11.7 °C 29.53 in /  999.9 hPa Calm     92 % 0 in /  0 mm
06:29 55.3 °F /  12.9 °C 53.3 °F /  11.8 °C 29.53 in /  999.9 hPa East 3.5 mph /  5.6 km/h 1.4 mph /  2.3 km/h 93 % 0 in /  0 mm
06:34 55.3 °F /  12.9 °C 53.3 °F /  11.8 °C 29.54 in /  1000.2 hPa Calm   0.1 mph /  0.2 km/h 93 % 0 in /  0 mm
06:39 55.2 °F /  12.9 °C 53.2 °F /  11.8 °C 29.54 in /  1000.2 hPa East 2.3 mph /  3.7 km/h 1.6 mph /  2.6 km/h 93 % 0 in /  0 mm
06:44 55.1 °F /  12.8 °C 53.1 °F /  11.7 °C 29.54 in /  1000.2 hPa East 1.2 mph /  1.9 km/h   93 % 0 in /  0 mm
06:49 55.1 °F /  12.8 °C 53.1 °F /  11.7 °C 29.54 in /  1000.2 hPa Calm     93 % 0 in /  0 mm
06:54 55.1 °F /  12.8 °C 53.1 °F /  11.7 °C 29.54 in /  1000.2 hPa Calm   0.9 mph /  1.4 km/h 93 % 0 in /  0 mm
06:59 54.9 °F /  12.7 °C 52.9 °F /  11.6 °C 29.54 in /  1000.2 hPa East 1.2 mph /  1.9 km/h 1.4 mph /  2.3 km/h 93 % 0 in /  0 mm
07:04 55 °F /  12.8 °C 53 °F /  11.7 °C 29.54 in /  1000.2 hPa Calm     93 % 0 in /  0 mm
07:09 55.4 °F /  13 °C 53.4 °F /  11.9 °C 29.54 in /  1000.2 hPa East 1 mph /  1.6 km/h 0.8 mph /  1.3 km/h 93 % 0 in /  0 mm
07:14 55.7 °F /  13.2 °C 53.7 °F /  12.1 °C 29.54 in /  1000.2 hPa East 2.3 mph /  3.7 km/h 0.3 mph /  0.5 km/h 93 % 0 in /  0 mm
07:19 55.8 °F /  13.2 °C 53.5 °F /  11.9 °C 29.54 in /  1000.2 hPa Calm     92 % 0 in /  0 mm
07:24 56 °F /  13.3 °C 53.7 °F /  12.1 °C 29.54 in /  1000.2 hPa Calm     92 % 0 in /  0 mm
07:29 56.1 °F /  13.4 °C 53.5 °F /  11.9 °C 29.55 in /  1000.6 hPa Calm     91 % 0 in /  0 mm
07:34 56.2 °F /  13.4 °C 53.6 °F /  12 °C 29.55 in /  1000.6 hPa Calm     91 % 0 in /  0 mm
07:39 56.4 °F /  13.6 °C 54.1 °F /  12.3 °C 29.55 in /  1000.6 hPa Calm     92 % 0 in /  0 mm
07:44 56.7 °F /  13.7 °C 54.4 °F /  12.4 °C 29.56 in /  1000.9 hPa Calm     92 % 0 in /  0 mm
07:49 56.9 °F /  13.8 °C 54.6 °F /  12.6 °C 29.56 in /  1000.9 hPa Calm     92 % 0 in /  0 mm
07:54 57 °F /  13.9 °C 54.4 °F /  12.4 °C 29.57 in /  1001.2 hPa East 2 mph /  3.2 km/h 1.1 mph /  1.8 km/h 91 % 0 in /  0 mm
07:59 57 °F /  13.9 °C 54.4 °F /  12.4 °C 29.57 in /  1001.2 hPa East 4.6 mph /  7.4 km/h 4.3 mph /  6.9 km/h 91 % 0 in /  0 mm
08:04 56.9 °F /  13.8 °C 54.3 °F /  12.4 °C 29.58 in /  1001.6 hPa East 3.5 mph /  5.6 km/h 1.7 mph /  2.7 km/h 91 % 0 in /  0 mm
08:09 56.9 °F /  13.8 °C 54.3 °F /  12.4 °C 29.59 in /  1001.9 hPa East 3.5 mph /  5.6 km/h 0.9 mph /  1.4 km/h 91 % 0 in /  0 mm
08:14 57 °F /  13.9 °C 54.4 °F /  12.4 °C 29.60 in /  1002.3 hPa East 2.3 mph /  3.7 km/h 0.4 mph /  0.6 km/h 91 % 0 in /  0 mm
08:19 57.1 °F /  13.9 °C 54.5 °F /  12.5 °C 29.60 in /  1002.3 hPa East 3.5 mph /  5.6 km/h 0.1 mph /  0.2 km/h 91 % 0 in /  0 mm
08:24 57.3 °F /  14.1 °C 54.7 °F /  12.6 °C 29.59 in /  1001.9 hPa East 6 mph /  9.7 km/h 3.1 mph /  5 km/h 91 % 0 in /  0 mm
08:29 57.4 °F /  14.1 °C 54.5 °F /  12.5 °C 29.60 in /  1002.3 hPa East 9.2 mph /  14.8 km/h 6.3 mph /  10.1 km/h 90 % 0 in /  0 mm
08:34 57.6 °F /  14.2 °C 54.7 °F /  12.6 °C 29.61 in /  1002.6 hPa ESE 8.1 mph /  13 km/h 5.2 mph /  8.4 km/h 90 % 0 in /  0 mm
08:39 57.8 °F /  14.3 °C 54.6 °F /  12.6 °C 29.62 in /  1002.9 hPa ESE 6.9 mph /  11.1 km/h 5.5 mph /  8.9 km/h 89 % 0 in /  0 mm
08:44 57.9 °F /  14.4 °C 54.4 °F /  12.4 °C 29.60 in /  1002.3 hPa ESE 6 mph /  9.7 km/h 5.8 mph /  9.3 km/h 88 % 0 in /  0 mm
08:49 57.9 °F /  14.4 °C 54.4 °F /  12.4 °C 29.60 in /  1002.3 hPa SE 8.1 mph /  13 km/h 5.1 mph /  8.2 km/h 88 % 0 in /  0 mm
08:54 58 °F /  14.4 °C 54.2 °F /  12.3 °C 29.63 in /  1003.3 hPa SE 5.8 mph /  9.3 km/h 4.6 mph /  7.4 km/h 87 % 0 in /  0 mm
08:59 58.1 °F /  14.5 °C 54.2 °F /  12.3 °C 29.62 in /  1002.9 hPa SE 3.5 mph /  5.6 km/h 2.9 mph /  4.7 km/h 87 % 0 in /  0 mm
09:04 58.3 °F /  14.6 °C 54.4 °F /  12.4 °C 29.62 in /  1002.9 hPa SE 5.8 mph /  9.3 km/h 4.8 mph /  7.7 km/h 87 % 0 in /  0 mm
09:09 58.4 °F /  14.7 °C 54.5 °F /  12.5 °C 29.61 in /  1002.6 hPa SE 6.9 mph /  11.1 km/h 6 mph /  9.7 km/h 87 % 0 in /  0 mm
09:14 58.4 °F /  14.7 °C 54.9 °F /  12.7 °C 29.61 in /  1002.6 hPa SE 5.8 mph /  9.3 km/h 4.6 mph /  7.4 km/h 88 % 0 in /  0 mm
09:19 58.3 °F /  14.6 °C 54.8 °F /  12.7 °C 29.60 in /  1002.3 hPa SE 7 mph /  11.3 km/h 5.3 mph /  8.5 km/h 88 % 0 in /  0 mm
09:24 58.3 °F /  14.6 °C 55.1 °F /  12.8 °C 29.59 in /  1001.9 hPa SE 8.1 mph /  13 km/h 3.5 mph /  5.6 km/h 89 % 0 in /  0 mm
09:29 58.2 °F /  14.6 °C 55 °F /  12.8 °C 29.61 in /  1002.6 hPa SE 8.1 mph /  13 km/h 6.1 mph /  9.8 km/h 89 % 0.008 in /  0.2 mm
09:34 58.1 °F /  14.5 °C 54.9 °F /  12.7 °C 29.61 in /  1002.6 hPa SE 9.2 mph /  14.8 km/h 5.2 mph /  8.4 km/h 89 % 0.008 in /  0.2 mm
09:39 57.9 °F /  14.4 °C 54.4 °F /  12.4 °C 29.61 in /  1002.6 hPa SE 6.9 mph /  11.1 km/h 4.1 mph /  6.6 km/h 88 % 0.016 in /  0.41 mm
09:44 57.8 °F /  14.3 °C 54.6 °F /  12.6 °C 29.61 in /  1002.6 hPa SE 5.8 mph /  9.3 km/h 2 mph /  3.2 km/h 89 % 0.016 in /  0.41 mm
09:49 57.8 °F /  14.3 °C 54.9 °F /  12.7 °C 29.62 in /  1002.9 hPa SE 5 mph /  8 km/h 3.6 mph /  5.8 km/h 90 % 0.024 in /  0.61 mm
09:54 57.8 °F /  14.3 °C 54.9 °F /  12.7 °C 29.61 in /  1002.6 hPa North 3.5 mph /  5.6 km/h 0.8 mph /  1.3 km/h 90 % 0.031 in /  0.79 mm
09:59 57.8 °F /  14.3 °C 55.2 °F /  12.9 °C 29.62 in /  1002.9 hPa North 8.1 mph /  13 km/h 5.8 mph /  9.3 km/h 91 % 0.031 in /  0.79 mm
10:04 57.9 °F /  14.4 °C 55.3 °F /  12.9 °C 29.61 in /  1002.6 hPa SE 15 mph /  24.1 km/h 5.9 mph /  9.5 km/h 91 % 0.031 in /  0.79 mm
10:09 57.8 °F /  14.3 °C 55.2 °F /  12.9 °C 29.60 in /  1002.3 hPa SE 9.2 mph /  14.8 km/h 5.6 mph /  9 km/h 91 % 0.039 in /  0.99 mm
10:14 57.9 °F /  14.4 °C 55.3 °F /  12.9 °C 29.60 in /  1002.3 hPa SE 7 mph /  11.3 km/h 5 mph /  8 km/h 91 % 0.039 in /  0.99 mm
10:19 58.1 °F /  14.5 °C 55.5 °F /  13.1 °C 29.62 in /  1002.9 hPa SE 9.2 mph /  14.8 km/h 7.2 mph /  11.6 km/h 91 % 0.039 in /  0.99 mm
10:24 58.3 °F /  14.6 °C 55.4 °F /  13 °C 29.61 in /  1002.6 hPa SE 8.1 mph /  13 km/h 4.5 mph /  7.2 km/h 90 % 0.039 in /  0.99 mm
10:29 58.7 °F /  14.8 °C 55.5 °F /  13.1 °C 29.62 in /  1002.9 hPa SE 7 mph /  11.3 km/h 6.8 mph /  10.9 km/h 89 % 0.031 in /  0.79 mm
10:34 59.3 °F /  15.2 °C 55.7 °F /  13.2 °C 29.63 in /  1003.3 hPa ESE 18.4 mph /  29.6 km/h 10.6 mph /  17.1 km/h 88 % 0.031 in /  0.79 mm
10:39 60.2 °F /  15.7 °C 55.7 °F /  13.2 °C 29.63 in /  1003.3 hPa ESE 15 mph /  24.1 km/h 7 mph /  11.3 km/h 85 % 0.024 in /  0.61 mm
10:44 61 °F /  16.1 °C 55.5 °F /  13.1 °C 29.64 in /  1003.6 hPa ESE 16.1 mph /  25.9 km/h 10.6 mph /  17.1 km/h 82 % 0.024 in /  0.61 mm
10:49 61.6 °F /  16.4 °C 55.7 °F /  13.2 °C 29.63 in /  1003.3 hPa ESE 13.8 mph /  22.2 km/h 8.1 mph /  13 km/h 81 % 0.016 in /  0.41 mm
10:54 61.8 °F /  16.6 °C 55.6 °F /  13.1 °C 29.62 in /  1002.9 hPa SE 9.2 mph /  14.8 km/h 4.2 mph /  6.8 km/h 80 % 0.008 in /  0.2 mm
10:59 62.1 °F /  16.7 °C 56.2 °F /  13.4 °C 29.61 in /  1002.6 hPa SE 9.2 mph /  14.8 km/h 5.3 mph /  8.5 km/h 81 % 0.008 in /  0.2 mm
11:04 62 °F /  16.7 °C 56.4 °F /  13.6 °C 29.61 in /  1002.6 hPa SE 10.4 mph /  16.7 km/h 3.9 mph /  6.3 km/h 82 % 0.008 in /  0.2 mm
11:09 61.7 °F /  16.5 °C 56.1 °F /  13.4 °C 29.62 in /  1002.9 hPa SE 13.8 mph /  22.2 km/h 9.7 mph /  15.6 km/h 82 % 0 in /  0 mm
11:14 61.2 °F /  16.2 °C 55.7 °F /  13.2 °C 29.61 in /  1002.6 hPa SE 9.2 mph /  14.8 km/h 8.3 mph /  13.4 km/h 82 % 0 in /  0 mm
11:19 60.8 °F /  16 °C 55.3 °F /  12.9 °C 29.63 in /  1003.3 hPa SE 13.8 mph /  22.2 km/h 8.1 mph /  13 km/h 82 % 0 in /  0 mm
11:24 60.4 °F /  15.8 °C 55.5 °F /  13.1 °C 29.62 in /  1002.9 hPa SSE 9.2 mph /  14.8 km/h 7.5 mph /  12.1 km/h 84 % 0 in /  0 mm
11:29 59.9 °F /  15.5 °C 55.7 °F /  13.2 °C 29.62 in /  1002.9 hPa SSE 9 mph /  14.5 km/h 5.2 mph /  8.4 km/h 86 % 0 in /  0 mm
11:34 59.6 °F /  15.3 °C 55.7 °F /  13.2 °C 29.61 in /  1002.6 hPa SSE 8.1 mph /  13 km/h 6.3 mph /  10.1 km/h 87 % 0 in /  0 mm
11:39 59.4 °F /  15.2 °C 55.8 °F /  13.2 °C 29.61 in /  1002.6 hPa SSE 8.1 mph /  13 km/h 6.8 mph /  10.9 km/h 88 % 0.008 in /  0.2 mm
11:44 59.3 °F /  15.2 °C 56.1 °F /  13.4 °C 29.61 in /  1002.6 hPa SSE 12 mph /  19.3 km/h 6.6 mph /  10.6 km/h 89 % 0.008 in /  0.2 mm
11:49 59 °F /  15 °C 55.8 °F /  13.2 °C 29.61 in /  1002.6 hPa SE 13.8 mph /  22.2 km/h 5.8 mph /  9.3 km/h 89 % 0.016 in /  0.41 mm
11:54 59 °F /  15 °C 55.8 °F /  13.2 °C 29.62 in /  1002.9 hPa North 11.5 mph /  18.5 km/h 5.7 mph /  9.2 km/h 89 % 0.016 in /  0.41 mm
11:59 59 °F /  15 °C 56.1 °F /  13.4 °C 29.61 in /  1002.6 hPa SE 5 mph /  8 km/h 5.1 mph /  8.2 km/h 90 % 0.016 in /  0.41 mm
12:04 59 °F /  15 °C 56.1 °F /  13.4 °C 29.61 in /  1002.6 hPa SE 8.1 mph /  13 km/h 5.2 mph /  8.4 km/h 90 % 0.024 in /  0.61 mm
12:09 59.2 °F /  15.1 °C 56.3 °F /  13.5 °C 29.61 in /  1002.6 hPa SE 4.6 mph /  7.4 km/h 2 mph /  3.2 km/h 90 % 0.024 in /  0.61 mm
12:14 59.1 °F /  15.1 °C 56.2 °F /  13.4 °C 29.61 in /  1002.6 hPa SE 8.1 mph /  13 km/h 4.6 mph /  7.4 km/h 90 % 0.024 in /  0.61 mm
12:19 59.2 °F /  15.1 °C 56.3 °F /  13.5 °C 29.61 in /  1002.6 hPa SE 13 mph /  20.9 km/h 7.1 mph /  11.4 km/h 90 % 0.024 in /  0.61 mm
12:24 59.3 °F /  15.2 °C 56.4 °F /  13.6 °C 29.61 in /  1002.6 hPa SE 11.5 mph /  18.5 km/h 7 mph /  11.3 km/h 90 % 0.024 in /  0.61 mm
12:29 59.5 °F /  15.3 °C 56.6 °F /  13.7 °C 29.60 in /  1002.3 hPa SE 8.1 mph /  13 km/h 5 mph /  8 km/h 90 % 0.024 in /  0.61 mm
12:34 60.7 °F /  15.9 °C 58.1 °F /  14.5 °C 29.60 in /  1002.3 hPa SE 11.5 mph /  18.5 km/h 7.9 mph /  12.7 km/h 91 % 0.024 in /  0.61 mm
12:39 62.1 °F /  16.7 °C 58.8 °F /  14.9 °C 29.60 in /  1002.3 hPa SE 11.5 mph /  18.5 km/h 6.7 mph /  10.8 km/h 89 % 0.016 in /  0.41 mm
12:44 62.8 °F /  17.1 °C 58.5 °F /  14.7 °C 29.60 in /  1002.3 hPa SE 11.5 mph /  18.5 km/h 7.2 mph /  11.6 km/h 86 % 0.016 in /  0.41 mm
12:49 63.7 °F /  17.6 °C 59.1 °F /  15.1 °C 29.60 in /  1002.3 hPa SE 6.9 mph /  11.1 km/h 2.7 mph /  4.3 km/h 85 % 0.008 in /  0.2 mm
12:54 64.2 °F /  17.9 °C 58.9 °F /  14.9 °C 29.59 in /  1001.9 hPa SE 6 mph /  9.7 km/h 4.7 mph /  7.6 km/h 83 % 0.008 in /  0.2 mm
12:59 64.9 °F /  18.3 °C 59.3 °F /  15.2 °C 29.59 in /  1001.9 hPa SE 4.6 mph /  7.4 km/h 1.6 mph /  2.6 km/h 82 % 0.008 in /  0.2 mm
13:04 65.8 °F /  18.8 °C 58.7 °F /  14.8 °C 29.59 in /  1001.9 hPa East 10.4 mph /  16.7 km/h 4.5 mph /  7.2 km/h 78 % 0 in /  0 mm
13:09 66.8 °F /  19.3 °C 59.4 °F /  15.2 °C 29.59 in /  1001.9 hPa East 11.5 mph /  18.5 km/h 4.4 mph /  7.1 km/h 77 % 0 in /  0 mm
13:14 67 °F /  19.4 °C 57.7 °F /  14.3 °C 29.59 in /  1001.9 hPa ENE 15 mph /  24.1 km/h 10.7 mph /  17.2 km/h 72 % 0 in /  0 mm
13:19 67.4 °F /  19.7 °C 59.2 °F /  15.1 °C 29.59 in /  1001.9 hPa East 11 mph /  17.7 km/h 5.8 mph /  9.3 km/h 75 % 0 in /  0 mm
13:24 67.7 °F /  19.8 °C 58.3 °F /  14.6 °C 29.59 in /  1001.9 hPa ENE 10.4 mph /  16.7 km/h 4.9 mph /  7.9 km/h 72 % 0 in /  0 mm
13:29 67.6 °F /  19.8 °C 57.9 °F /  14.4 °C 29.59 in /  1001.9 hPa ESE 13 mph /  20.9 km/h 7.3 mph /  11.7 km/h 71 % 0 in /  0 mm
13:34 67.7 °F /  19.8 °C 58.3 °F /  14.6 °C 29.59 in /  1001.9 hPa East 11 mph /  17.7 km/h 4.2 mph /  6.8 km/h 72 % 0 in /  0 mm
13:39 67.8 °F /  19.9 °C 57.7 °F /  14.3 °C 29.59 in /  1001.9 hPa East 6.9 mph /  11.1 km/h 6.3 mph /  10.1 km/h 70 % 0 in /  0 mm
13:44 68.1 °F /  20.1 °C 57.1 °F /  13.9 °C 29.59 in /  1001.9 hPa ENE 10.4 mph /  16.7 km/h 7.5 mph /  12.1 km/h 68 % 0 in /  0 mm
13:49 68.5 °F /  20.3 °C 57.5 °F /  14.2 °C 29.59 in /  1001.9 hPa ENE 8.1 mph /  13 km/h 5.9 mph /  9.5 km/h 68 % 0 in /  0 mm
13:54 69.3 °F /  20.7 °C 58.3 °F /  14.6 °C 29.59 in /  1001.9 hPa East 10.4 mph /  16.7 km/h 2.9 mph /  4.7 km/h 68 % 0 in /  0 mm
13:59 70.2 °F /  21.2 °C 58.3 °F /  14.6 °C 29.59 in /  1001.9 hPa East 8.1 mph /  13 km/h 4.6 mph /  7.4 km/h 66 % 0 in /  0 mm
14:04 70.6 °F /  21.4 °C 58.7 °F /  14.8 °C 29.59 in /  1001.9 hPa ENE 6 mph /  9.7 km/h 4.9 mph /  7.9 km/h 66 % 0 in /  0 mm
14:09 70.8 °F /  21.6 °C 58.9 °F /  14.9 °C 29.59 in /  1001.9 hPa ENE 6.9 mph /  11.1 km/h 3.8 mph /  6.1 km/h 66 % 0 in /  0 mm
14:14 71.2 °F /  21.8 °C 58.4 °F /  14.7 °C 29.59 in /  1001.9 hPa ENE 7 mph /  11.3 km/h 5.9 mph /  9.5 km/h 64 % 0 in /  0 mm
14:19 71.2 °F /  21.8 °C 58.4 °F /  14.7 °C 29.59 in /  1001.9 hPa East 6 mph /  9.7 km/h 6.5 mph /  10.5 km/h 64 % 0 in /  0 mm
14:24 71.4 °F /  21.9 °C 57.7 °F /  14.3 °C 29.59 in /  1001.9 hPa East 8.1 mph /  13 km/h 5.1 mph /  8.2 km/h 62 % 0 in /  0 mm
Ararat Weather
Compliments of Weather Underground - 1.5 mb
Click here to send mail.


ABOUT

Live weather data from Ararat, Victoria, Australia, 3377
Data uploaded from Cumulus every 5 minutes to Weather Underground.
This site then downloads the raw data for formatting and display.
Metric and imperial data can be displayed. Graphs and historical data available.
Includes Sun and Moon times and rain image live from BOM.

Check out Ararat Weather on Facebook, Twitter and Google +

Help support ongoing costs by checking out the ads





Follow @AraratWeather